Time;durP1;ratioP1;P1;durP2;ratioP2;P2;SDS_P1;SDS_P2;PMS_P1;PMS_P2;Temp;Humidity;BMP_temperature;BMP_pressure;BME280_temperature;BME280_humidity;BME280_pressure;Samples;Min_cycle;Max_cycle;Signal;HPM_P1;HPM_P2
2022/02/16 00:00:08;;;;;;;258.70;93.83;;;2.60;99.90;;;;;;5035381;28;20189;-80
2022/02/16 00:02:34;;;;;;;81.30;33.03;;;;;;;;;;5053634;28;20189;-80
2022/02/16 00:05:00;;;;;;;92.67;35.77;;;2.50;99.90;;;;;;5035329;28;20245;-80
2022/02/16 00:07:25;;;;;;;123.77;47.27;;;2.60;99.90;;;;;;5053346;28;20212;-80
2022/02/16 00:09:51;;;;;;;165.60;56.13;;;2.50;99.90;;;;;;5018940;28;20176;-80
2022/02/16 00:12:17;;;;;;;100.30;37.77;;;2.40;99.90;;;;;;5018806;28;20595;-80
2022/02/16 00:14:42;;;;;;;176.83;60.27;;;2.50;99.90;;;;;;5018691;28;20603;-80
2022/02/16 00:17:08;;;;;;;99.80;41.03;;;2.40;99.90;;;;;;5035103;28;20180;-80
2022/02/16 00:19:34;;;;;;;135.20;49.77;;;3.10;99.90;;;;;;5035270;28;20640;-80
2022/02/16 00:21:59;;;;;;;166.33;62.50;;;2.40;99.90;;;;;;5035190;28;20180;-80
2022/02/16 00:24:25;;;;;;;253.27;87.77;;;2.70;99.90;;;;;;5053328;28;20228;-80
2022/02/16 00:26:51;;;;;;;178.57;77.17;;;2.90;99.90;;;;;;5035368;28;20548;-80
2022/02/16 00:29:16;;;;;;;70.23;29.30;;;2.50;99.90;;;;;;5034991;28;20177;-80
2022/02/16 00:31:42;;;;;;;64.17;28.53;;;3.60;99.90;;;;;;5019016;28;20184;-80
2022/02/16 00:34:08;;;;;;;64.33;26.53;;;4.10;99.90;;;;;;5035193;28;20180;-80
2022/02/16 00:36:34;;;;;;;221.53;66.37;;;2.50;99.90;;;;;;5035327;28;20187;-80
2022/02/16 00:39:00;;;;;;;55.20;23.87;;;3.40;99.90;;;;;;5035355;28;20275;-80
2022/02/16 00:41:26;;;;;;;69.63;29.20;;;2.50;99.90;;;;;;5019082;28;20280;-80
2022/02/16 00:43:52;;;;;;;50.30;23.23;;;4.40;99.90;;;;;;5053032;28;20196;-81
2022/02/16 00:46:17;;;;;;;44.37;21.10;;;3.00;99.90;;;;;;5052605;28;20536;-80
2022/02/16 00:48:43;;;;;;;111.40;38.73;;;2.50;99.90;;;;;;5018618;28;20227;-80
2022/02/16 00:51:09;;;;;;;196.77;58.50;;;;;;;;;;5034979;28;20187;-80
2022/02/16 00:53:35;;;;;;;122.93;40.97;;;2.50;99.90;;;;;;5018771;28;20191;-80
2022/02/16 00:56:00;;;;;;;121.57;40.90;;;3.00;99.90;;;;;;5052700;28;20185;-80
2022/02/16 00:58:26;;;;;;;67.73;27.80;;;3.20;99.90;;;;;;5036663;28;20270;-80
2022/02/16 01:00:52;;;;;;;131.70;45.07;;;3.20;99.90;;;;;;5038810;28;20244;-80
2022/02/16 01:03:18;;;;;;;56.80;23.93;;;;;;;;;;5038802;28;20180;-80
2022/02/16 01:05:45;;;;;;;129.63;46.67;;;2.50;99.90;;;;;;5038858;28;20713;-80
2022/02/16 01:08:11;;;;;;;103.33;36.27;;;2.50;99.90;;;;;;5038704;28;20231;-80
2022/02/16 01:10:39;;;;;;;148.63;53.30;;;2.40;99.90;;;;;;5038870;28;20183;-80
2022/02/16 01:13:04;;;;;;;123.97;44.40;;;2.40;99.90;;;;;;5056343;28;20186;-80
2022/02/16 01:15:30;;;;;;;107.73;41.20;;;3.90;99.90;;;;;;5022606;28;20186;-81
2022/02/16 01:17:56;;;;;;;60.57;26.50;;;3.80;99.90;;;;;;5021939;28;20261;-80
2022/02/16 01:20:22;;;;;;;65.23;28.33;;;4.20;99.90;;;;;;5038319;28;20184;-80
2022/02/16 01:22:47;;;;;;;136.63;48.57;;;2.60;99.90;;;;;;5038532;28;20198;-81
2022/02/16 01:25:13;;;;;;;66.83;29.00;;;2.50;99.90;;;;;;5038509;28;20181;-81
2022/02/16 01:27:39;;;;;;;49.93;23.37;;;2.30;99.90;;;;;;5038134;28;20267;-80
2022/02/16 01:30:07;;;;;;;49.70;22.33;;;3.80;99.90;;;;;;5056527;28;20184;-82
2022/02/16 01:32:33;;;;;;;65.67;27.60;;;2.30;99.90;;;;;;5056471;28;20260;-80
2022/02/16 01:34:58;;;;;;;140.57;49.50;;;2.80;99.90;;;;;;5038632;28;20271;-80
2022/02/16 01:37:24;;;;;;;110.10;45.00;;;4.10;99.90;;;;;;5038174;28;20196;-80
2022/02/16 01:39:49;;;;;;;120.27;46.73;;;3.30;99.90;;;;;;5021753;28;20652;-80
2022/02/16 01:42:17;;;;;;;92.40;39.77;;;4.10;99.90;;;;;;5038076;28;20643;-80
2022/02/16 01:44:43;;;;;;;118.23;46.97;;;2.20;99.90;;;;;;5037971;28;20171;-80
2022/02/16 01:47:08;;;;;;;91.07;37.20;;;3.20;99.90;;;;;;5037824;28;20219;-80
2022/02/16 01:49:35;;;;;;;112.10;40.47;;;2.20;99.90;;;;;;5038133;28;20184;-80
2022/02/16 01:52:02;;;;;;;163.70;57.77;;;2.20;99.90;;;;;;5038180;28;20221;-80
2022/02/16 01:54:28;;;;;;;62.90;27.90;;;2.20;99.90;;;;;;5055384;28;20183;-80
2022/02/16 01:56:54;;;;;;;63.00;27.90;;;2.70;99.90;;;;;;5021165;28;20194;-80
2022/02/16 01:59:23;;;;;;;64.23;27.70;;;2.40;99.90;;;;;;5037714;28;20641;-80
2022/02/16 02:01:50;;;;;;;65.40;28.63;;;3.80;99.90;;;;;;5055477;28;20181;-80
2022/02/16 02:04:18;;;;;;;51.63;23.50;;;2.70;99.90;;;;;;5055495;28;20172;-80
2022/02/16 02:06:44;;;;;;;51.87;22.57;;;2.20;99.90;;;;;;5037488;28;20179;-80
2022/02/16 02:09:11;;;;;;;54.40;22.47;;;4.30;99.90;;;;;;5036969;28;20210;-86
2022/02/16 02:11:37;;;;;;;81.63;31.77;;;4.60;99.90;;;;;;5055100;28;20172;-80
2022/02/16 02:14:06;;;;;;;52.47;23.50;;;4.20;99.90;;;;;;5021471;28;20317;-80
2022/02/16 02:16:32;;;;;;;128.83;54.07;;;2.30;99.90;;;;;;5055158;28;20172;-80
2022/02/16 02:18:59;;;;;;;166.47;51.03;;;;;;;;;;5037479;28;20548;-80
2022/02/16 02:21:25;;;;;;;75.10;30.97;;;2.30;99.90;;;;;;5055158;28;20275;-80
2022/02/16 02:23:51;;;;;;;124.90;42.73;;;2.60;99.90;;;;;;5037208;28;20246;-80
2022/02/16 02:26:18;;;;;;;104.27;35.63;;;3.10;99.90;;;;;;5054817;28;20183;-80
2022/02/16 02:28:45;;;;;;;185.17;64.33;;;3.10;99.90;;;;;;5039989;28;20220;-80
2022/02/16 02:31:11;;;;;;;118.00;42.53;;;3.00;99.90;;;;;;5061152;28;20171;-81
2022/02/16 02:33:39;;;;;;;95.10;38.23;;;2.40;99.90;;;;;;5059912;28;20200;-80
2022/02/16 02:36:06;;;;;;;60.73;26.80;;;4.20;99.90;;;;;;5058877;28;20180;-80
2022/02/16 02:38:35;;;;;;;105.60;40.03;;;2.40;99.90;;;;;;5040868;28;20598;-80
2022/02/16 02:41:04;;;;;;;53.37;24.70;;;2.40;99.90;;;;;;5059519;28;20186;-80
2022/02/16 02:43:31;;;;;;;71.20;30.50;;;3.10;99.90;;;;;;5060667;28;20168;-81
2022/02/16 02:45:57;;;;;;;54.40;25.63;;;;;;;;;;5062054;28;20179;-81
2022/02/16 02:48:25;;;;;;;73.87;29.20;;;2.50;99.90;;;;;;5062139;28;20204;-85
2022/02/16 02:50:52;;;;;;;106.60;46.10;;;2.50;99.90;;;;;;5046038;28;20184;-80
2022/02/16 02:53:18;;;;;;;76.53;33.17;;;3.00;99.90;;;;;;5047552;28;20191;-81
2022/02/16 02:55:43;;;;;;;59.07;25.17;;;2.80;99.90;;;;;;5045159;28;20276;-80
2022/02/16 02:58:09;;;;;;;57.03;26.73;;;4.10;99.90;;;;;;5056934;28;20180;-80
2022/02/16 03:00:36;;;;;;;62.50;29.40;;;2.50;99.90;;;;;;5078788;28;20168;-81
2022/02/16 03:03:02;;;;;;;58.37;25.80;;;2.60;99.90;;;;;;5062018;28;20172;-80
2022/02/16 03:05:28;;;;;;;58.50;27.57;;;3.80;99.90;;;;;;5054667;28;20193;-80
2022/02/16 03:07:53;;;;;;;57.70;26.20;;;2.60;99.90;;;;;;5038312;28;20217;-80
2022/02/16 03:10:19;;;;;;;53.93;26.50;;;2.60;99.90;;;;;;5055128;28;20189;-83
2022/02/16 03:12:45;;;;;;;54.33;24.57;;;2.60;99.90;;;;;;5055880;28;20521;-80
2022/02/16 03:15:11;;;;;;;58.13;26.30;;;2.60;99.90;;;;;;5037479;28;20191;-81
2022/02/16 03:17:36;;;;;;;55.90;25.47;;;2.50;99.90;;;;;;5037181;28;20275;-80
2022/02/16 03:20:04;;;;;;;58.63;25.43;;;2.50;99.90;;;;;;5055083;28;20188;-80
2022/02/16 03:22:30;;;;;;;51.43;23.93;;;2.50;99.90;;;;;;5054477;28;20169;-80
2022/02/16 03:24:56;;;;;;;50.90;22.73;;;2.50;99.90;;;;;;5037152;28;20229;-80
2022/02/16 03:27:22;;;;;;;51.00;24.23;;;;;;;;;;5020504;28;20227;-85
2022/02/16 03:29:48;;;;;;;57.93;24.33;;;2.50;99.90;;;;;;5037510;28;20276;-79
2022/02/16 03:32:14;;;;;;;53.60;24.63;;;2.40;99.90;;;;;;5036895;28;20285;-80
2022/02/16 03:34:39;;;;;;;70.57;29.60;;;2.40;99.90;;;;;;5036593;28;20189;-80
2022/02/16 03:37:06;;;;;;;65.23;28.77;;;;;;;;;;5036880;28;20690;-80
2022/02/16 03:39:32;;;;;;;56.27;25.80;;;2.30;99.90;;;;;;5053804;28;20263;-80
2022/02/16 03:42:00;;;;;;;65.60;26.43;;;2.30;99.90;;;;;;5035915;28;20183;-80
2022/02/16 03:44:25;;;;;;;64.00;25.47;;;2.20;99.90;;;;;;5019413;28;20646;-80
2022/02/16 03:46:51;;;;;;;61.73;27.80;;;2.30;99.90;;;;;;5035698;28;20190;-80
2022/02/16 03:49:18;;;;;;;55.73;26.00;;;2.30;99.90;;;;;;5035880;28;20184;-80
2022/02/16 03:51:44;;;;;;;61.73;26.93;;;2.20;99.90;;;;;;5053514;28;20184;-80
2022/02/16 03:54:09;;;;;;;56.50;25.10;;;2.20;99.90;;;;;;5036023;28;20191;-80
2022/02/16 03:56:35;;;;;;;57.67;25.47;;;3.20;99.90;;;;;;5018977;28;20184;-80
2022/02/16 03:59:01;;;;;;;64.03;27.00;;;3.40;99.90;;;;;;5035620;28;20198;-80
2022/02/16 04:01:26;;;;;;;57.07;25.90;;;2.20;99.90;;;;;;5035246;28;20643;-85
2022/02/16 04:03:52;;;;;;;63.70;28.20;;;3.30;99.90;;;;;;5035506;28;20187;-80
2022/02/16 04:06:18;;;;;;;63.87;28.13;;;2.20;99.90;;;;;;5018741;28;20532;-80
2022/02/16 04:08:44;;;;;;;65.83;26.70;;;2.70;99.90;;;;;;5035373;28;20211;-80
2022/02/16 04:11:10;;;;;;;61.87;27.73;;;2.20;99.90;;;;;;5019213;28;20634;-80
2022/02/16 04:13:36;;;;;;;61.33;26.13;;;2.60;99.90;;;;;;5035220;28;20215;-80
2022/02/16 04:16:02;;;;;;;53.13;26.63;;;4.00;99.90;;;;;;5018754;28;20192;-80
2022/02/16 04:18:27;;;;;;;47.53;21.50;;;2.10;99.90;;;;;;5053054;28;20254;-80
2022/02/16 04:20:53;;;;;;;51.20;21.80;;;2.10;99.90;;;;;;5035119;28;20191;-80
2022/02/16 04:23:19;;;;;;;48.50;21.73;;;3.00;99.90;;;;;;5018892;28;20271;-80
2022/02/16 04:25:44;;;;;;;51.37;23.40;;;2.70;99.90;;;;;;5052651;28;20625;-80
2022/02/16 04:28:10;;;;;;;67.70;29.40;;;3.20;99.90;;;;;;5018644;28;20684;-80
2022/02/16 04:30:36;;;;;;;77.40;34.87;;;2.10;99.90;;;;;;5035285;28;20184;-80
2022/02/16 04:33:01;;;;;;;55.80;26.50;;;2.10;99.90;;;;;;5052245;28;20180;-80
2022/02/16 04:35:27;;;;;;;53.17;24.33;;;2.00;99.90;;;;;;5034981;28;20191;-80
2022/02/16 04:37:53;;;;;;;53.00;24.63;;;;;;;;;;5018098;28;20188;-80
2022/02/16 04:40:19;;;;;;;93.63;37.00;;;2.20;99.90;;;;;;5052870;28;20181;-80
2022/02/16 04:42:45;;;;;;;55.30;22.87;;;4.20;99.90;;;;;;5032955;28;20554;-81
2022/02/16 04:45:12;;;;;;;52.23;21.97;;;2.20;99.90;;;;;;5048800;28;20187;-80
2022/02/16 04:47:38;;;;;;;50.33;21.50;;;2.10;99.90;;;;;;5050256;28;20216;-80
2022/02/16 04:50:05;;;;;;;54.50;23.77;;;2.10;99.90;;;;;;5033084;28;20191;-81
2022/02/16 04:52:36;;;;;;;59.60;27.37;;;;;;;;;;5049486;28;20203;-80
2022/02/16 04:55:08;;;;;;;109.77;42.27;;;2.10;99.90;;;;;;5051036;28;20187;-81
2022/02/16 04:57:34;;;;;;;79.53;37.77;;;;;;;;;;5037332;28;20191;-80
2022/02/16 05:00:00;;;;;;;100.57;43.93;;;2.10;99.90;;;;;;5033396;28;20200;-80
2022/02/16 05:02:26;;;;;;;115.17;47.00;;;2.10;99.90;;;;;;5016274;28;20585;-81
2022/02/16 05:04:52;;;;;;;72.17;32.57;;;2.80;99.90;;;;;;5032196;28;20223;-80
2022/02/16 05:07:19;;;;;;;72.70;34.00;;;;;;;;;;5032986;28;20318;-81
2022/02/16 05:09:44;;;;;;;54.40;24.93;;;2.00;99.90;;;;;;5032815;28;20180;-81
2022/02/16 05:12:10;;;;;;;87.40;36.70;;;2.00;99.90;;;;;;5032793;28;20184;-80
2022/02/16 05:14:36;;;;;;;79.23;37.23;;;2.30;99.90;;;;;;5032548;28;20218;-80
2022/02/16 05:17:01;;;;;;;45.13;20.70;;;2.00;99.90;;;;;;5016226;28;20191;-81
2022/02/16 05:19:27;;;;;;;49.43;21.07;;;2.00;99.90;;;;;;5033004;28;20188;-80
2022/02/16 05:21:53;;;;;;;49.20;21.67;;;2.00;99.90;;;;;;5000033;28;20184;-80
2022/02/16 05:24:19;;;;;;;47.93;22.83;;;2.00;99.90;;;;;;5032347;28;20702;-81
2022/02/16 05:26:46;;;;;;;51.60;23.00;;;2.40;99.90;;;;;;5032428;28;20194;-80
2022/02/16 05:29:12;;;;;;;50.93;23.63;;;3.10;99.90;;;;;;5032538;28;20246;-81
2022/02/16 05:31:37;;;;;;;43.67;18.77;;;2.10;99.90;;;;;;5012793;28;20565;-81
2022/02/16 05:34:03;;;;;;;47.73;21.63;;;3.70;99.90;;;;;;5024062;28;20287;-80
2022/02/16 05:36:29;;;;;;;55.50;26.23;;;2.60;99.90;;;;;;5016321;28;20275;-80
2022/02/16 05:38:55;;;;;;;60.73;26.33;;;;;;;;;;5050146;28;20207;-80
2022/02/16 05:41:21;;;;;;;67.90;33.13;;;;;;;;;;5048751;28;20197;-82
2022/02/16 05:43:47;;;;;;;59.20;27.77;;;2.30;99.90;;;;;;5032376;28;20649;-81
2022/02/16 05:46:13;;;;;;;61.80;26.73;;;4.00;99.90;;;;;;5032969;28;20233;-79
2022/02/16 05:48:38;;;;;;;48.03;21.87;;;2.40;99.90;;;;;;5053526;28;20644;-81
2022/02/16 05:51:04;;;;;;;41.93;21.53;;;2.90;99.90;;;;;;5036918;28;20199;-81
2022/02/16 05:53:30;;;;;;;48.73;21.93;;;2.40;99.90;;;;;;5035424;28;20652;-82
2022/02/16 05:55:56;;;;;;;47.93;22.63;;;2.40;99.90;;;;;;5036906;28;20548;-81
2022/02/16 05:58:22;;;;;;;50.87;24.90;;;;;;;;;;5054330;28;20192;-81
2022/02/16 06:00:48;;;;;;;44.10;20.13;;;;;;;;;;5036235;28;20272;-81
2022/02/16 06:03:13;;;;;;;48.03;23.90;;;2.40;99.90;;;;;;5052016;28;20188;-82
2022/02/16 06:05:39;;;;;;;60.33;28.90;;;3.00;99.90;;;;;;5037339;28;20216;-82
2022/02/16 06:08:04;;;;;;;49.83;22.87;;;4.50;99.90;;;;;;5037695;28;20752;-82
2022/02/16 06:10:30;;;;;;;62.63;27.97;;;2.70;99.90;;;;;;5054366;28;20178;-83
2022/02/16 06:12:58;;;;;;;91.57;41.03;;;4.40;99.90;;;;;;5056699;28;20176;-81
2022/02/16 06:15:24;;;;;;;79.20;39.00;;;;;;;;;;5038557;28;20192;-82
2022/02/16 06:17:50;;;;;;;63.43;29.00;;;2.60;99.90;;;;;;5055057;28;20277;-82
2022/02/16 06:20:15;;;;;;;42.63;21.33;;;2.70;99.90;;;;;;5037192;28;20266;-82
2022/02/16 06:22:41;;;;;;;72.17;31.80;;;2.70;99.90;;;;;;5055341;28;20683;-83
2022/02/16 06:25:08;;;;;;;69.57;33.67;;;2.70;99.90;;;;;;5036941;28;20560;-83
2022/02/16 06:27:34;;;;;;;54.87;25.93;;;2.80;99.90;;;;;;5036987;28;20203;-83
2022/02/16 06:30:01;;;;;;;51.50;25.17;;;2.80;99.90;;;;;;5054178;28;20172;-83
2022/02/16 06:32:27;;;;;;;69.63;32.90;;;2.80;99.90;;;;;;5054610;28;20204;-83
2022/02/16 06:34:53;;;;;;;60.10;29.97;;;3.50;99.90;;;;;;5036936;28;20212;-82
2022/02/16 06:37:19;;;;;;;51.93;25.50;;;2.80;99.90;;;;;;5036717;28;20647;-82
2022/02/16 06:39:44;;;;;;;54.47;26.53;;;3.60;99.90;;;;;;5020506;28;20184;-82
2022/02/16 06:42:11;;;;;;;58.67;28.13;;;2.80;99.90;;;;;;5054576;28;20755;-81
2022/02/16 06:44:37;;;;;;;67.37;29.43;;;3.20;99.90;;;;;;5055093;28;20176;-83
2022/02/16 06:47:03;;;;;;;69.57;31.93;;;3.00;99.90;;;;;;5020228;28;20195;-81
2022/02/16 06:49:28;;;;;;;69.50;32.20;;;3.10;99.90;;;;;;5054700;28;20685;-83
2022/02/16 06:51:54;;;;;;;52.60;26.53;;;3.10;99.90;;;;;;5055137;28;20263;-83
2022/02/16 06:54:20;;;;;;;52.83;24.30;;;4.10;99.90;;;;;;5037589;28;20186;-82
2022/02/16 06:56:46;;;;;;;50.97;23.27;;;3.20;99.90;;;;;;5036209;28;20252;-83
2022/02/16 06:59:12;;;;;;;43.40;20.00;;;3.30;99.90;;;;;;5055323;28;20182;-84
2022/02/16 07:01:38;;;;;;;42.23;19.77;;;4.30;99.90;;;;;;5039303;28;20196;-83
2022/02/16 07:04:04;;;;;;;41.63;18.17;;;3.90;99.90;;;;;;5037519;28;20188;-82
2022/02/16 07:06:31;;;;;;;39.60;18.97;;;3.30;99.90;;;;;;5029825;28;20181;-83
2022/02/16 07:08:57;;;;;;;44.73;23.13;;;;;;;;;;5052685;28;20224;-84
2022/02/16 07:11:24;;;;;;;48.67;21.43;;;3.30;99.90;;;;;;5050702;28;20397;-80
2022/02/16 07:13:50;;;;;;;47.70;25.00;;;3.30;99.90;;;;;;5049010;28;20587;-81
2022/02/16 07:16:16;;;;;;;57.40;27.50;;;3.70;99.90;;;;;;5030906;28;20218;-82
2022/02/16 07:18:43;;;;;;;48.60;24.30;;;3.40;99.90;;;;;;5025489;28;20210;-82
2022/02/16 07:21:09;;;;;;;49.60;24.13;;;3.40;99.90;;;;;;5056327;28;20566;-82
2022/02/16 07:23:38;;;;;;;44.43;22.90;;;3.50;99.90;;;;;;5048023;28;20234;-82
2022/02/16 07:26:06;;;;;;;45.40;21.40;;;4.00;99.90;;;;;;5055662;28;20176;-82
2022/02/16 07:28:32;;;;;;;50.47;24.37;;;3.50;99.90;;;;;;5054612;28;20207;-82
2022/02/16 07:30:58;;;;;;;48.87;21.27;;;3.60;99.90;;;;;;5036365;28;20179;-82
2022/02/16 07:33:24;;;;;;;50.13;25.10;;;3.70;99.90;;;;;;5019978;28;20267;-82
2022/02/16 07:35:50;;;;;;;57.37;26.83;;;5.00;99.90;;;;;;5053867;28;20266;-82
2022/02/16 07:38:16;;;;;;;49.97;25.47;;;3.70;99.90;;;;;;5053683;28;20633;-82
2022/02/16 07:40:42;;;;;;;54.67;26.70;;;3.70;99.90;;;;;;5035704;28;20186;-81
2022/02/16 07:43:08;;;;;;;49.23;24.47;;;3.80;99.90;;;;;;5019472;28;20174;-83
2022/02/16 07:45:34;;;;;;;49.60;25.53;;;3.90;99.90;;;;;;5053939;28;20215;-82
2022/02/16 07:48:00;;;;;;;54.73;25.47;;;4.40;99.90;;;;;;5035667;28;20595;-82
2022/02/16 07:50:27;;;;;;;42.33;20.13;;;4.60;99.90;;;;;;5019417;28;20188;-82
2022/02/16 07:52:55;;;;;;;44.17;20.67;;;4.20;99.90;;;;;;5053446;28;20247;-82
2022/02/16 07:55:21;;;;;;;40.00;20.43;;;6.20;99.90;;;;;;5036139;28;20203;-82
2022/02/16 07:57:47;;;;;;;47.70;20.63;;;4.40;99.90;;;;;;5035405;28;20285;-82
2022/02/16 08:00:13;;;;;;;45.87;21.13;;;4.50;99.90;;;;;;5035377;28;20282;-84
2022/02/16 08:02:39;;;;;;;44.57;21.37;;;4.60;99.90;;;;;;5035459;28;20227;-82
2022/02/16 08:05:05;;;;;;;46.80;21.33;;;;;;;;;;5035412;28;20183;-82
2022/02/16 08:07:31;;;;;;;45.93;21.17;;;;;;;;;;5034190;28;20601;-82
2022/02/16 08:09:57;;;;;;;48.60;20.93;;;;;;;;;;5018746;28;20192;-82
2022/02/16 08:12:23;;;;;;;41.80;21.67;;;4.90;99.90;;;;;;5053375;28;20179;-82
2022/02/16 08:14:48;;;;;;;43.50;21.37;;;5.00;99.90;;;;;;5052973;28;20181;-83
2022/02/16 08:17:14;;;;;;;41.00;22.40;;;5.10;99.90;;;;;;5018694;28;20214;-85
2022/02/16 08:19:40;;;;;;;39.43;21.00;;;5.20;99.90;;;;;;5034985;28;20191;-84
2022/02/16 08:22:05;;;;;;;45.13;22.73;;;5.20;99.90;;;;;;5035063;28;20659;-83
2022/02/16 08:24:32;;;;;;;44.47;21.33;;;;;;;;;;5035099;28;20471;-83
2022/02/16 08:26:59;;;;;;;46.50;22.60;;;4.90;99.90;;;;;;5034724;28;20188;-83
2022/02/16 08:29:25;;;;;;;46.47;20.80;;;5.30;99.90;;;;;;5034799;28;20274;-82
2022/02/16 08:31:52;;;;;;;45.10;20.17;;;5.30;99.90;;;;;;5034677;28;20275;-82
2022/02/16 08:34:18;;;;;;;38.60;20.03;;;5.30;99.90;;;;;;5053095;28;20182;-83
2022/02/16 08:36:44;;;;;;;47.53;22.63;;;5.30;99.90;;;;;;5052895;28;20249;-81
2022/02/16 08:39:10;;;;;;;38.47;19.53;;;5.90;99.90;;;;;;5035260;28;20191;-83
2022/02/16 08:41:37;;;;;;;42.57;21.07;;;5.40;99.90;;;;;;5034855;28;20554;-83
2022/02/16 08:44:04;;;;;;;44.23;20.43;;;5.40;99.90;;;;;;5034994;28;20209;-82
2022/02/16 08:46:29;;;;;;;43.57;20.80;;;5.50;99.90;;;;;;5035239;28;20183;-82
2022/02/16 08:49:00;;;;;;;38.03;19.70;;;5.50;99.90;;;;;;5035906;28;20214;-82
2022/02/16 08:51:27;;;;;;;41.87;20.23;;;5.70;99.90;;;;;;5026415;28;20191;-84
2022/02/16 08:53:53;;;;;;;42.60;19.60;;;5.90;99.90;;;;;;5041155;28;20187;-84
2022/02/16 08:56:19;;;;;;;46.87;20.13;;;6.20;99.90;;;;;;5031953;28;20183;-83
2022/02/16 08:58:44;;;;;;;37.80;18.83;;;6.30;99.90;;;;;;5045736;28;20191;-84
2022/02/16 09:01:11;;;;;;;36.43;19.27;;;6.40;99.90;;;;;;5055038;28;20231;-84
2022/02/16 09:03:37;;;;;;;39.50;20.20;;;6.60;99.90;;;;;;5077075;28;20164;-83
2022/02/16 09:06:02;;;;;;;42.13;21.23;;;6.80;99.90;;;;;;5059722;28;20168;-85
2022/02/16 09:08:28;;;;;;;38.87;19.53;;;7.00;99.90;;;;;;5041486;28;20235;-84
2022/02/16 09:10:54;;;;;;;40.50;19.63;;;7.20;99.90;;;;;;5036934;28;20176;-83
2022/02/16 09:13:19;;;;;;;38.20;18.10;;;7.40;99.90;;;;;;5070160;28;20176;-83
2022/02/16 09:15:45;;;;;;;43.70;19.40;;;7.40;99.90;;;;;;5057575;28;20188;-84
2022/02/16 09:18:11;;;;;;;41.00;17.80;;;7.60;99.90;;;;;;5059248;28;20172;-84
2022/02/16 09:20:36;;;;;;;40.37;19.90;;;7.70;99.90;;;;;;5063170;28;20167;-84
2022/02/16 09:23:02;;;;;;;33.47;17.90;;;7.80;99.90;;;;;;5058025;28;20247;-83
2022/02/16 09:25:28;;;;;;;36.10;18.17;;;8.00;99.90;;;;;;5039281;28;20187;-84
2022/02/16 09:27:54;;;;;;;30.93;17.30;;;;;;;;;;5022229;28;20225;-82
2022/02/16 09:30:20;;;;;;;34.53;17.87;;;7.90;99.90;;;;;;5022264;28;20523;-82
2022/02/16 09:32:46;;;;;;;34.47;17.27;;;7.80;99.90;;;;;;5038671;28;20234;-83
2022/02/16 09:35:11;;;;;;;33.60;18.40;;;7.80;99.90;;;;;;5021834;28;20211;-82
2022/02/16 09:37:37;;;;;;;33.40;17.07;;;7.90;99.90;;;;;;5038745;28;20179;-81
2022/02/16 09:40:04;;;;;;;32.30;17.00;;;7.80;99.90;;;;;;5056136;28;20180;-82
2022/02/16 09:42:32;;;;;;;34.30;17.17;;;7.60;99.90;;;;;;5038177;28;20219;-83
2022/02/16 09:45:04;;;;;;;31.47;17.03;;;7.60;99.90;;;;;;5038135;28;20180;-82
2022/02/16 09:47:33;;;;;;;30.80;17.17;;;7.60;99.90;;;;;;5038092;28;20577;-82
2022/02/16 09:50:00;;;;;;;31.33;17.10;;;7.50;99.90;;;;;;5037686;28;20180;-83
2022/02/16 09:52:27;;;;;;;36.87;18.63;;;7.50;99.90;;;;;;5037905;28;20234;-83
2022/02/16 09:54:53;;;;;;;37.27;17.60;;;;;;;;;;5056045;28;20183;-83
2022/02/16 09:57:20;;;;;;;40.57;19.23;;;7.60;99.90;;;;;;5040061;28;20550;-82
2022/02/16 09:59:46;;;;;;;35.83;18.63;;;7.60;99.90;;;;;;5038190;28;20184;-81
2022/02/16 10:02:15;;;;;;;34.00;19.17;;;7.80;99.90;;;;;;5037900;28;20187;-82
2022/02/16 10:04:56;;;;;;;34.20;18.37;;;8.00;99.90;;;;;;5037775;28;20286;-82
2022/02/16 10:07:22;;;;;;;39.30;18.10;;;7.80;99.90;;;;;;5055503;28;20204;-82
2022/02/16 10:09:49;;;;;;;39.70;18.63;;;8.00;99.90;;;;;;5037731;28;20180;-81
2022/02/16 10:12:15;;;;;;;33.20;18.33;;;8.20;99.90;;;;;;5021001;28;20188;-80
2022/02/16 10:14:41;;;;;;;31.83;16.33;;;8.40;99.90;;;;;;5037209;28;20206;-81
2022/02/16 10:17:18;;;;;;;31.93;17.87;;;8.50;99.90;;;;;;5037411;28;20670;-82
2022/02/16 10:19:50;;;;;;;35.77;16.47;;;8.70;99.90;;;;;;5037752;28;20275;-83
2022/02/16 10:22:16;;;;;;;33.43;16.53;;;8.80;99.90;;;;;;5055116;28;20198;-83
2022/02/16 10:24:45;;;;;;;26.43;13.80;;;8.90;99.90;;;;;;5037088;28;20274;-81
2022/02/16 10:27:14;;;;;;;28.90;14.77;;;9.10;99.90;;;;;;5037965;28;20180;-84
2022/02/16 10:29:42;;;;;;;26.67;14.70;;;9.10;99.90;;;;;;5036594;28;20179;-82
2022/02/16 10:32:08;;;;;;;27.30;15.00;;;9.30;99.90;;;;;;5036250;28;20180;-82
2022/02/16 10:35:03;;;;;;;28.40;13.30;;;9.30;99.90;;;;;;5036502;28;20632;-84
2022/02/16 10:37:38;;;;;;;30.17;15.80;;;9.40;99.90;;;;;;5039872;28;20195;-82
2022/02/16 10:40:11;;;;;;;35.63;15.13;;;9.50;99.90;;;;;;5037526;28;20643;-81
2022/02/16 10:43:00;;;;;;;26.80;13.60;;;9.60;99.90;;;;;;5034900;28;20171;-82
2022/02/16 10:45:47;;;;;;;26.47;13.13;;;9.50;99.90;;;;;;5037131;28;20664;-82
2022/02/16 10:48:13;;;;;;;23.20;13.83;;;9.50;99.90;;;;;;5036152;28;20654;-81
2022/02/16 10:50:45;;;;;;;26.97;13.57;;;9.50;99.90;;;;;;5054839;28;20255;-82
2022/02/16 10:53:11;;;;;;;34.50;12.87;;;9.30;99.90;;;;;;5055846;28;20178;-82
2022/02/16 10:55:37;;;;;;;29.20;14.93;;;;;;;;;;5039015;28;20176;-82
2022/02/16 10:58:05;;;;;;;27.73;14.73;;;9.60;99.90;;;;;;5040409;28;20180;-82
2022/02/16 11:00:33;;;;;;;23.83;14.10;;;9.70;99.90;;;;;;5021276;28;20184;-82
2022/02/16 11:02:59;;;;;;;23.13;13.37;;;;;;;;;;5056248;28;20172;-84
2022/02/16 11:05:26;;;;;;;23.13;12.37;;;9.70;99.90;;;;;;5039310;28;20515;-83
2022/02/16 11:07:53;;;;;;;28.03;12.90;;;9.60;99.90;;;;;;5057512;28;20195;-82
2022/02/16 11:10:22;;;;;;;26.60;13.30;;;9.70;99.90;;;;;;5038390;28;20237;-82
2022/02/16 11:12:48;;;;;;;23.60;13.10;;;9.70;99.90;;;;;;5037931;28;20641;-83
2022/02/16 11:15:14;;;;;;;28.07;13.17;;;9.80;99.90;;;;;;5042137;28;20176;-83
2022/02/16 11:17:40;;;;;;;28.70;14.80;;;9.80;99.90;;;;;;5036273;28;20180;-82
2022/02/16 11:20:26;;;;;;;24.50;14.67;;;9.90;99.90;;;;;;5053936;28;20170;-81
2022/02/16 11:23:00;;;;;;;30.87;14.67;;;10.30;99.90;;;;;;5053808;28;20179;-83
2022/02/16 11:25:35;;;;;;;38.27;14.90;;;10.30;99.90;;;;;;5037741;28;20180;-84
2022/02/16 11:28:04;;;;;;;28.10;13.77;;;10.50;99.90;;;;;;5054033;28;20290;-85
2022/02/16 11:30:36;;;;;;;22.47;13.33;;;10.40;99.90;;;;;;5036706;28;20230;-85
2022/02/16 11:33:24;;;;;;;24.10;13.73;;;10.40;99.90;;;;;;5053934;28;20176;-84
2022/02/16 11:35:49;;;;;;;29.57;14.80;;;10.30;99.90;;;;;;5054352;28;20206;-85
2022/02/16 11:38:19;;;;;;;28.00;14.37;;;10.20;99.90;;;;;;5054665;28;20255;-84
2022/02/16 11:40:46;;;;;;;26.07;13.67;;;10.20;99.90;;;;;;5035958;28;20198;-84
2022/02/16 11:43:14;;;;;;;28.10;13.90;;;10.10;99.90;;;;;;5035416;28;20176;-85
2022/02/16 11:45:41;;;;;;;24.40;12.70;;;10.10;99.90;;;;;;5053806;28;20179;-85
2022/02/16 11:48:08;;;;;;;24.93;13.47;;;10.40;99.90;;;;;;5053934;28;20196;-83
2022/02/16 11:50:36;;;;;;;23.30;12.40;;;10.00;99.90;;;;;;5053365;28;20183;-88
2022/02/16 11:53:05;;;;;;;25.90;13.47;;;10.00;99.90;;;;;;5052806;28;20179;-86
2022/02/16 11:55:42;;;;;;;27.77;14.13;;;10.00;99.90;;;;;;5035223;28;20263;-86
2022/02/16 11:58:15;;;;;;;31.07;14.90;;;10.20;99.90;;;;;;5033111;28;20214;-86
2022/02/16 12:00:42;;;;;;;27.63;14.57;;;10.50;99.90;;;;;;5034978;28;20172;-87
2022/02/16 12:03:13;;;;;;;24.37;13.03;;;10.50;99.90;;;;;;5035784;28;20655;-86
2022/02/16 12:06:09;;;;;;;28.40;13.40;;;10.60;99.90;;;;;;5053644;28;20168;-86
2022/02/16 12:08:40;;;;;;;27.43;14.23;;;10.90;99.90;;;;;;5035959;28;20257;-85
2022/02/16 12:11:29;;;;;;;25.43;13.23;;;11.10;99.90;;;;;;5034728;28;20180;-85
2022/02/16 12:13:58;;;;;;;24.67;12.27;;;11.50;99.90;;;;;;5035231;28;20195;-85
2022/02/16 12:16:35;;;;;;;24.63;10.63;;;11.80;99.90;;;;;;5053022;28;20186;-87
2022/02/16 12:19:04;;;;;;;22.50;13.15;;;11.70;99.90;;;;;;5036043;28;20183;-85
2022/02/16 12:21:40;;;;;;;24.75;11.55;;;11.40;99.90;;;;;;5035406;28;20179;-86
2022/02/16 12:24:09;;;;;;;22.67;12.10;;;11.10;99.90;;;;;;5053245;28;20233;-85
2022/02/16 12:26:47;;;;;;;22.43;11.80;;;10.90;99.90;;;;;;5035581;28;20624;-86
2022/02/16 12:29:25;;;;;;;24.57;13.33;;;10.90;99.90;;;;;;5035138;28;20207;-86
2022/02/16 12:31:55;;;;;;;27.83;14.13;;;11.20;99.90;;;;;;5052745;28;20548;-87
2022/02/16 12:34:25;;;;;;;28.07;13.87;;;11.00;99.90;;;;;;5035536;28;20186;-87
2022/02/16 12:37:06;;;;;;;24.02;12.85;;;10.80;99.90;;;;;;5036778;28;20234;-88
2022/02/16 12:39:33;;;;;;;24.83;12.43;;;10.80;99.90;;;;;;5053559;28;20167;-85